Time;durP1;ratioP1;P1;durP2;ratioP2;P2;SDS_P1;SDS_P2;PMS_P1;PMS_P2;Temp;Humidity;BMP_temperature;BMP_pressure;BME280_temperature;BME280_humidity;BME280_pressure;Samples;Min_cycle;Max_cycle;Signal;HPM_P1;HPM_P2
2023/12/28 00:01:02;;;;;;;8.20;2.57;;;;;;;6.37;100.00;99997.72;7369520;19;20447;-40
2023/12/28 00:03:35;;;;;;;3.37;1.40;;;;;;;6.45;100.00;99976.75;7392872;19;21122;-41
2023/12/28 00:06:08;;;;;;;5.53;1.13;;;;;;;6.50;100.00;99983.81;7372395;19;20808;-39
2023/12/28 00:08:38;;;;;;;8.27;2.37;;;;;;;6.45;100.00;99988.69;7392693;19;20455;-40
2023/12/28 00:11:07;;;;;;;1.80;0.90;;;;;;;6.42;100.00;100001.38;7368691;19;20506;-40
2023/12/28 00:13:37;;;;;;;3.63;1.30;;;;;;;6.37;100.00;100010.53;7390456;19;20890;-39
2023/12/28 00:16:08;;;;;;;2.50;1.60;;;;;;;6.30;100.00;100025.63;7367185;19;20430;-39
2023/12/28 00:18:40;;;;;;;3.47;1.73;;;;;;;6.21;100.00;100043.13;7389091;19;20982;-40
2023/12/28 00:21:11;;;;;;;2.43;1.47;;;;;;;6.18;100.00;100042.97;7368699;19;20427;-41
2023/12/28 00:23:41;;;;;;;2.93;1.63;;;;;;;6.13;100.00;100059.78;7388489;19;20452;-39
2023/12/28 00:26:11;;;;;;;2.63;1.10;;;;;;;6.19;100.00;100060.97;7368981;19;20445;-41
2023/12/28 00:28:41;;;;;;;3.50;1.53;;;;;;;6.17;100.00;100060.03;7388944;19;20411;-43
2023/12/28 00:31:12;;;;;;;4.53;1.33;;;;;;;6.15;100.00;100071.00;7367598;19;20451;-39
2023/12/28 00:33:44;;;;;;;3.53;1.50;;;;;;;6.07;100.00;100076.59;7389173;19;20432;-40
2023/12/28 00:36:14;;;;;;;3.90;1.50;;;;;;;6.00;100.00;100100.13;7367692;19;20439;-41
2023/12/28 00:38:44;;;;;;;4.23;1.80;;;;;;;5.93;100.00;100133.91;7388497;19;20407;-40
2023/12/28 00:41:14;;;;;;;6.17;1.87;;;;;;;5.86;100.00;100157.47;7367450;19;20494;-44
2023/12/28 00:43:43;;;;;;;2.97;1.70;;;;;;;5.80;100.00;100204.13;7389278;19;20468;-43
2023/12/28 00:46:13;;;;;;;3.50;2.17;;;;;;;5.77;100.00;100253.47;7365669;19;20423;-42
2023/12/28 00:48:45;;;;;;;2.90;1.80;;;;;;;5.80;100.00;100281.78;7388720;19;20729;-42
2023/12/28 00:51:16;;;;;;;8.07;1.67;;;;;;;5.77;100.00;100317.47;7367575;19;20419;-44
2023/12/28 00:53:46;;;;;;;2.73;1.63;;;;;;;5.73;100.00;100345.38;7247138;19;2758523;-42
2023/12/28 00:56:16;;;;;;;2.83;1.40;;;;;;;5.67;100.00;100397.13;7369189;19;20264;-39
2023/12/28 00:58:46;;;;;;;3.50;2.10;;;;;;;5.65;100.00;100462.72;7391104;19;20403;-38
2023/12/28 01:01:15;;;;;;;3.30;1.23;;;;;;;5.67;100.00;100500.41;7370353;19;20451;-40
2023/12/28 01:03:48;;;;;;;3.20;1.70;;;;;;;5.70;100.00;100520.19;7392180;19;20445;-39
2023/12/28 01:06:18;;;;;;;4.47;2.20;;;;;;;5.74;100.00;100522.09;7370919;19;20419;-39
2023/12/28 01:08:48;;;;;;;4.47;1.73;;;;;;;5.75;100.00;100529.00;7398596;19;20435;-40
2023/12/28 01:11:17;;;;;;;3.90;1.97;;;;;;;5.76;100.00;100553.81;7376446;19;20498;-39
2023/12/28 01:13:47;;;;;;;3.67;2.03;;;;;;;5.74;100.00;100557.09;7398087;19;20435;-40
2023/12/28 01:16:17;;;;;;;5.17;2.27;;;;;;;5.74;100.00;100562.22;7376621;19;20431;-40
2023/12/28 01:18:49;;;;;;;6.00;1.80;;;;;;;5.71;100.00;100590.16;7397752;19;20416;-39
2023/12/28 01:21:20;;;;;;;9.07;2.07;;;;;;;5.73;100.00;100592.03;7376424;19;20423;-39
2023/12/28 01:23:53;;;;;;;3.37;1.93;;;;;;;5.79;100.00;100606.84;7396745;19;20427;-38
2023/12/28 01:26:23;;;;;;;2.57;1.60;;;;;;;5.80;100.00;100596.72;7376872;19;20418;-40
2023/12/28 01:28:53;;;;;;;3.77;1.97;;;;;;;5.88;100.00;100609.97;7400595;19;20792;-39
2023/12/28 01:31:22;;;;;;;6.40;1.73;;;;;;;5.91;100.00;100606.72;7377757;19;20498;-40
2023/12/28 01:33:55;;;;;;;6.10;2.80;;;;;;;5.95;100.00;100598.41;7397847;19;20820;-40
2023/12/28 01:36:25;;;;;;;3.30;1.70;;;;;;;6.00;100.00;100596.97;7375707;19;20430;-39
2023/12/28 01:38:55;;;;;;;3.93;1.13;;;;;;;6.01;100.00;100574.81;7397090;19;20483;-40
2023/12/28 01:41:25;;;;;;;10.00;2.50;;;;;;;6.06;100.00;100566.63;7375061;19;20967;-41
2023/12/28 01:43:55;;;;;;;5.20;2.30;;;;;;;6.06;100.00;100558.94;7398171;19;20455;-42
2023/12/28 01:46:25;;;;;;;29.40;2.33;;;;;;;6.12;100.00;100566.13;7373854;19;20974;-39
2023/12/28 01:48:59;;;;;;;3.63;1.40;;;;;;;6.14;100.00;100538.00;7400700;19;20411;-39
2023/12/28 01:51:29;;;;;;;6.73;2.23;;;;;;;6.15;100.00;100534.66;7375986;19;20423;-40
2023/12/28 01:54:00;;;;;;;7.67;2.53;;;;;;;6.19;100.00;100527.22;7398486;19;20899;-39
2023/12/28 01:56:30;;;;;;;3.63;1.87;;;;;;;6.17;100.00;100499.75;7375786;19;20798;-41
2023/12/28 01:58:59;;;;;;;3.10;2.30;;;;;;;6.21;100.00;100486.34;7397084;19;20487;-39
2023/12/28 02:01:29;;;;;;;5.60;2.13;;;;;;;6.27;100.00;100468.72;7377396;19;20426;-42
2023/12/28 02:04:02;;;;;;;2.43;1.47;;;;;;;6.30;100.00;100443.25;7397409;19;20452;-42
2023/12/28 02:06:32;;;;;;;8.13;2.00;;;;;;;6.36;100.00;100414.50;7376155;19;20415;-39
2023/12/28 02:09:02;;;;;;;3.50;2.00;;;;;;;6.45;100.00;100403.88;7396611;19;20400;-39
2023/12/28 02:11:31;;;;;;;4.27;1.67;;;;;;;6.45;100.00;100386.81;7374133;19;20446;-40
2023/12/28 02:14:02;;;;;;;3.00;1.87;;;;;;;6.44;100.00;100379.94;7396144;19;20443;-39
2023/12/28 02:16:35;;;;;;;3.00;2.17;;;;;;;6.44;100.00;100373.91;7373770;19;20759;-41
2023/12/28 02:19:16;;;;;;;3.30;1.60;;;;;;;6.50;100.00;100373.38;7391528;19;20455;-40
2023/12/28 02:21:45;;;;;;;2.40;1.37;;;;;;;6.48;100.00;100352.78;7372333;19;20444;-44
2023/12/28 02:24:15;;;;;;;2.80;1.37;;;;;;;6.51;100.00;100329.84;7393263;19;20754;-42
2023/12/28 02:26:47;;;;;;;5.00;1.77;;;;;;;6.58;100.00;100325.94;7372114;19;20828;-40
2023/12/28 02:29:17;;;;;;;6.00;2.20;;;;;;;6.56;100.00;100297.66;7392642;19;20812;-45
2023/12/28 02:31:51;;;;;;;4.80;1.43;;;;;;;6.59;100.00;100302.94;7371961;19;20474;-40
2023/12/28 02:34:32;;;;;;;3.13;1.27;;;;;;;6.58;100.00;100295.19;7394297;19;20411;-40
2023/12/28 02:37:03;;;;;;;3.93;2.27;;;;;;;6.59;100.00;100281.56;7371992;19;20834;-42
2023/12/28 02:39:33;;;;;;;2.70;1.60;;;;;;;6.58;100.00;100284.94;7393018;19;20860;-41
2023/12/28 02:42:06;;;;;;;2.70;1.40;;;;;;;6.60;100.00;100268.81;7372483;19;20422;-39
2023/12/28 02:44:36;;;;;;;5.43;1.90;;;;;;;6.57;100.00;100278.91;7392250;19;20523;-41
2023/12/28 02:47:06;;;;;;;10.23;2.73;;;;;;;6.60;100.00;100273.94;7373718;19;20498;-39
2023/12/28 02:49:36;;;;;;;5.03;2.10;;;;;;;6.62;100.00;100262.06;7396313;19;20747;-38
2023/12/28 02:52:06;;;;;;;3.57;1.80;;;;;;;6.60;100.00;100263.69;7374842;19;20427;-40
2023/12/28 02:54:36;;;;;;;3.80;2.17;;;;;;;6.52;100.00;100259.88;7396777;19;21005;-38
2023/12/28 02:57:09;;;;;;;7.60;2.70;;;;;;;6.51;100.00;100268.34;7373525;19;20481;-43
2023/12/28 02:59:38;;;;;;;4.73;2.87;;;;;;;6.46;100.00;100282.63;7392884;19;20408;-39
2023/12/28 03:02:08;;;;;;;3.07;1.53;;;;;;;6.48;100.00;100287.00;7374291;19;20427;-39
2023/12/28 03:04:38;;;;;;;4.50;1.87;;;;;;;6.52;100.00;100285.50;7397074;19;20473;-39
2023/12/28 03:07:08;;;;;;;4.20;2.77;;;;;;;6.52;100.00;100284.63;7373292;19;20504;-42
2023/12/28 03:09:39;;;;;;;4.97;2.20;;;;;;;6.46;100.00;100280.06;7395846;19;20403;-45
2023/12/28 03:12:12;;;;;;;6.03;2.67;;;;;;;6.44;100.00;100286.78;7373512;19;20969;-40
2023/12/28 03:14:41;;;;;;;4.10;2.47;;;;;;;6.48;100.00;100281.88;7396717;19;20443;-40
2023/12/28 03:17:11;;;;;;;4.50;2.93;;;;;;;6.43;100.00;100278.22;7373386;19;20427;-45
2023/12/28 03:19:41;;;;;;;2.87;1.77;;;;;;;6.50;100.00;100299.03;7396417;19;20818;-40
2023/12/28 03:22:11;;;;;;;3.93;2.50;;;;;;;6.56;100.00;100281.41;7373004;19;20430;-39
2023/12/28 03:24:41;;;;;;;3.40;1.93;;;;;;;6.51;100.00;100267.47;7396878;19;20514;-43
2023/12/28 03:27:13;;;;;;;4.47;2.20;;;;;;;6.47;100.00;100267.31;7373805;19;20439;-44
2023/12/28 03:29:43;;;;;;;3.20;1.47;;;;;;;6.48;100.00;100274.19;7393161;19;20398;-40
2023/12/28 03:32:13;;;;;;;6.00;1.60;;;;;;;6.47;100.00;100266.44;7371240;19;20506;-46
2023/12/28 03:34:43;;;;;;;4.67;2.87;;;;;;;6.43;100.00;100274.78;7391763;19;20992;-39
2023/12/28 03:37:13;;;;;;;6.23;2.70;;;;;;;6.46;100.00;100264.69;7369798;19;20406;-40
2023/12/28 03:39:43;;;;;;;5.87;2.43;;;;;;;6.44;100.00;100271.41;7391094;19;20930;-42
2023/12/28 03:42:16;;;;;;;11.23;2.87;;;;;;;6.53;100.00;100278.69;7371288;19;20451;-39
2023/12/28 03:44:46;;;;;;;4.13;2.03;;;;;;;6.51;100.00;100258.09;7391718;19;20420;-42
2023/12/28 03:47:16;;;;;;;4.60;2.07;;;;;;;6.51;100.00;100257.22;7367799;19;20398;-40
2023/12/28 03:49:45;;;;;;;2.80;1.80;;;;;;;6.48;100.00;100263.06;7392539;19;20926;-40
2023/12/28 03:52:15;;;;;;;4.97;2.83;;;;;;;6.44;100.00;100258.59;7370423;19;20428;-41
2023/12/28 03:54:45;;;;;;;8.07;1.67;;;;;;;6.46;100.00;100273.25;7391566;19;20430;-40
2023/12/28 03:57:17;;;;;;;3.90;2.00;;;;;;;6.53;100.00;100271.88;7369076;19;20985;-44
2023/12/28 03:59:47;;;;;;;6.60;2.57;;;;;;;6.46;100.00;100265.56;7391012;19;20403;-41
2023/12/28 04:02:17;;;;;;;4.00;2.13;;;;;;;6.44;100.00;100268.84;7368285;19;20935;-40
2023/12/28 04:04:47;;;;;;;3.10;1.67;;;;;;;6.46;100.00;100274.94;7390984;19;20437;-41
2023/12/28 04:07:16;;;;;;;3.40;1.90;;;;;;;6.44;100.00;100268.84;7368784;19;20403;-43
2023/12/28 04:12:17;;;;;;;4.33;2.47;;;;;;;6.42;100.00;100279.00;7371034;19;20431;-41
2023/12/28 04:14:47;;;;;;;3.67;1.40;;;;;;;6.41;100.00;100281.50;7393328;19;20408;-41
2023/12/28 04:17:17;;;;;;;5.30;2.80;;;;;;;6.34;100.00;100295.69;7370956;19;20431;-39
2023/12/28 04:19:47;;;;;;;3.53;2.17;;;;;;;6.39;100.00;100303.59;7393469;19;20417;-40
2023/12/28 04:22:16;;;;;;;8.03;2.60;;;;;;;6.39;100.00;100295.91;7371121;19;20842;-41
2023/12/28 04:24:46;;;;;;;6.93;3.90;;;;;;;6.44;100.00;100299.59;7394411;19;20404;-40
2023/12/28 04:27:19;;;;;;;5.87;2.30;;;;;;;6.50;100.00;100279.41;7371204;19;20554;-41
2023/12/28 04:29:49;;;;;;;4.53;2.47;;;;;;;6.46;100.00;100274.94;7393177;19;21018;-41
2023/12/28 04:32:18;;;;;;;7.40;3.00;;;;;;;6.46;100.00;100269.81;7370989;19;20443;-41
2023/12/28 04:34:48;;;;;;;2.77;1.40;;;;;;;6.50;100.00;100266.59;7393265;19;20787;-42
2023/12/28 04:37:18;;;;;;;3.50;1.93;;;;;;;6.53;100.00;100264.19;7370726;19;20431;-41
2023/12/28 04:39:48;;;;;;;5.43;2.87;;;;;;;6.48;100.00;100253.69;7392945;19;20478;-41
2023/12/28 04:42:20;;;;;;;15.50;2.47;;;;;;;6.49;100.00;100249.47;7369280;19;20427;-40
2023/12/28 04:44:50;;;;;;;7.10;3.60;;;;;;;6.50;100.00;100251.22;7393735;19;20529;-40
2023/12/28 04:47:20;;;;;;;3.50;1.93;;;;;;;6.46;100.00;100249.31;7369047;19;20419;-41
2023/12/28 04:49:50;;;;;;;5.33;2.80;;;;;;;6.44;100.00;100256.03;7392831;19;20411;-40
2023/12/28 04:52:19;;;;;;;3.30;2.27;;;;;;;6.39;100.00;100267.72;7370283;19;20431;-41
2023/12/28 04:54:49;;;;;;;6.17;2.80;;;;;;;6.35;100.00;100269.25;7394797;19;20773;-41
2023/12/28 04:57:24;;;;;;;7.50;3.13;;;;;;;6.35;100.00;100282.97;7370091;19;20441;-41
2023/12/28 04:59:54;;;;;;;7.03;2.40;;;;;;;6.34;100.00;100301.69;7393086;19;20395;-41
2023/12/28 05:02:24;;;;;;;4.00;1.80;;;;;;;6.28;100.00;100306.50;7370334;19;20435;-40
2023/12/28 05:04:54;;;;;;;8.77;2.70;;;;;;;6.30;100.00;100314.28;7394897;19;20408;-41
2023/12/28 05:07:24;;;;;;;4.30;1.90;;;;;;;6.32;100.00;100333.16;7370085;19;20595;-41
2023/12/28 05:09:54;;;;;;;6.83;2.97;;;;;;;6.34;100.00;100319.63;7392440;19;20404;-41
2023/12/28 05:12:26;;;;;;;3.13;1.60;;;;;;;6.37;100.00;100330.84;7370049;19;20430;-41
2023/12/28 05:14:59;;;;;;;5.70;2.90;;;;;;;6.37;100.00;100333.41;7392722;19;20403;-42
2023/12/28 05:17:29;;;;;;;9.90;5.40;;;;;;;6.30;100.00;100334.78;7369507;19;20458;-42
2023/12/28 05:19:58;;;;;;;5.87;2.73;;;;;;;6.35;100.00;100328.19;7392400;19;20442;-44
2023/12/28 05:22:28;;;;;;;3.20;1.83;;;;;;;6.31;100.00;100332.28;7370567;19;20807;-40
2023/12/28 05:24:58;;;;;;;4.47;2.13;;;;;;;6.28;100.00;100332.13;7394093;19;20400;-41
2023/12/28 05:27:31;;;;;;;5.27;2.00;;;;;;;6.25;100.00;100349.03;7369421;19;20431;-41
2023/12/28 05:30:00;;;;;;;8.30;3.10;;;;;;;6.29;100.00;100348.38;7393555;19;20779;-41
2023/12/28 05:32:30;;;;;;;4.63;1.90;;;;;;;6.25;100.00;100372.94;7369717;19;20451;-42
2023/12/28 05:35:00;;;;;;;5.53;2.10;;;;;;;6.29;100.00;100379.13;7392395;19;20411;-42
2023/12/28 05:37:30;;;;;;;4.07;2.20;;;;;;;6.33;100.00;100381.06;7368314;19;20427;-41
2023/12/28 05:40:00;;;;;;;5.67;2.60;;;;;;;6.35;100.00;100364.97;7391369;19;20431;-41
2023/12/28 05:42:32;;;;;;;5.07;3.10;;;;;;;6.41;100.00;100369.50;7369022;19;20471;-41
2023/12/28 05:45:02;;;;;;;6.23;3.10;;;;;;;6.36;100.00;100360.69;7391439;19;20792;-42
2023/12/28 05:47:32;;;;;;;10.50;4.23;;;;;;;6.37;100.00;100353.91;7363459;19;20506;-42
2023/12/28 05:50:03;;;;;;;9.60;2.30;;;;;;;6.39;100.00;100359.97;7391208;19;20420;-42
2023/12/28 05:52:33;;;;;;;3.93;1.70;;;;;;;6.45;100.00;100365.41;7369172;19;20435;-41
2023/12/28 05:55:04;;;;;;;6.23;2.57;;;;;;;6.44;100.00;100350.84;7398088;19;20412;-42
2023/12/28 05:57:36;;;;;;;7.23;2.80;;;;;;;6.40;100.00;100336.13;7375651;19;20427;-41
2023/12/28 06:00:09;;;;;;;6.40;2.60;;;;;;;6.40;100.00;100352.38;7398595;19;20527;-40
2023/12/28 06:02:39;;;;;;;3.83;2.20;;;;;;;6.42;100.00;100355.88;7369543;19;20427;-41
2023/12/28 06:05:09;;;;;;;7.33;1.60;;;;;;;6.49;100.00;100359.66;7396100;19;20402;-41
2023/12/28 06:07:41;;;;;;;5.03;2.40;;;;;;;6.56;100.00;100336.09;7375672;19;20423;-41
2023/12/28 06:10:11;;;;;;;4.17;2.10;;;;;;;6.61;100.00;100319.28;7395190;19;20867;-41
2023/12/28 06:12:44;;;;;;;6.20;1.97;;;;;;;6.71;100.00;100312.03;7376126;19;20419;-41
2023/12/28 06:15:14;;;;;;;6.47;3.40;;;;;;;6.75;100.00;100303.72;7396290;19;20418;-41
2023/12/28 06:17:44;;;;;;;2.77;1.73;;;;;;;6.79;100.00;100287.69;7375700;19;20423;-41
2023/12/28 06:20:14;;;;;;;3.83;1.37;;;;;;;6.87;100.00;100280.38;7396051;19;20427;-41
2023/12/28 06:22:48;;;;;;;6.57;3.00;;;;;;;6.93;100.00;100272.09;7375773;19;20423;-41
2023/12/28 06:25:17;;;;;;;4.43;2.03;;;;;;;6.92;100.00;100258.38;7394290;19;20420;-40
2023/12/28 06:27:50;;;;;;;4.20;1.30;;;;;;;6.98;100.00;100247.56;7374881;19;20996;-42
2023/12/28 06:30:20;;;;;;;11.83;2.50;;;;;;;7.06;100.00;100224.81;7397597;19;20440;-41
2023/12/28 06:32:50;;;;;;;4.90;1.90;;;;;;;7.15;100.00;100192.81;7375539;19;20506;-41
2023/12/28 06:35:20;;;;;;;3.10;1.47;;;;;;;7.12;100.00;100192.63;7396513;19;20404;-40
2023/12/28 06:37:50;;;;;;;3.93;1.57;;;;;;;7.16;100.00;100202.25;7375210;19;20551;-41
2023/12/28 06:40:19;;;;;;;4.80;2.40;;;;;;;7.21;100.00;100204.13;7396228;19;20483;-41
2023/12/28 06:42:52;;;;;;;5.87;2.50;;;;;;;7.24;100.00;100191.47;7374895;19;20456;-46
2023/12/28 06:45:26;;;;;;;2.00;1.33;;;;;;;7.30;100.00;100163.50;7393547;19;20440;-42
2023/12/28 06:47:56;;;;;;;3.10;1.97;;;;;;;7.36;100.00;100150.97;7374404;19;20443;-41
2023/12/28 06:50:27;;;;;;;7.20;2.33;;;;;;;7.35;100.00;100168.84;7397989;19;20526;-41
2023/12/28 06:52:57;;;;;;;5.40;1.97;;;;;;;7.38;100.00;100158.75;7376009;19;20851;-41
2023/12/28 06:55:27;;;;;;;7.03;2.33;;;;;;;7.40;100.00;100108.34;7395857;19;20410;-42
2023/12/28 06:57:59;;;;;;;5.30;2.60;;;;;;;7.47;100.00;100099.19;7374986;19;20904;-42
2023/12/28 07:00:29;;;;;;;5.20;2.50;;;;;;;7.50;100.00;100089.09;7396298;19;20855;-42
2023/12/28 07:02:59;;;;;;;6.40;2.50;;;;;;;7.46;100.00;100103.47;7373178;19;20444;-41
2023/12/28 07:05:29;;;;;;;7.33;3.40;;;;;;;7.43;100.00;100093.94;7396252;19;20411;-41
2023/12/28 07:07:59;;;;;;;3.10;1.50;;;;;;;7.45;100.00;100108.53;7374855;19;21037;-41
2023/12/28 07:10:29;;;;;;;7.40;1.83;;;;;;;7.49;100.00;100090.75;7395121;19;20979;-41
2023/12/28 07:13:01;;;;;;;4.80;1.60;;;;;;;7.50;100.00;100091.66;7372276;19;20439;-41
2023/12/28 07:15:31;;;;;;;5.40;2.90;;;;;;;7.46;100.00;100082.06;7377499;19;20396;-41
2023/12/28 07:18:01;;;;;;;6.40;2.10;;;;;;;7.52;100.00;100065.25;7395335;19;20758;-41
2023/12/28 07:20:31;;;;;;;5.77;2.30;;;;;;;7.55;100.00;100091.03;7379003;19;20439;-41
2023/12/28 07:23:01;;;;;;;7.03;2.67;;;;;;;7.58;100.00;100095.41;7395885;19;20403;-42
2023/12/28 07:25:30;;;;;;;9.10;2.30;;;;;;;7.60;100.00;100086.13;7380429;19;20486;-41
2023/12/28 07:28:03;;;;;;;6.67;2.70;;;;;;;7.57;100.00;100085.97;7395480;19;20491;-44
2023/12/28 07:30:33;;;;;;;11.67;3.83;;;;;;;7.64;100.00;100111.09;7372198;19;20428;-43
2023/12/28 07:33:02;;;;;;;3.17;1.47;;;;;;;7.62;100.00;100084.47;7394666;19;20416;-41
2023/12/28 07:35:32;;;;;;;10.63;2.80;;;;;;;7.63;100.00;100090.50;7370043;19;20426;-41
2023/12/28 07:38:02;;;;;;;4.67;2.10;;;;;;;7.67;100.00;100103.53;7395197;19;20440;-41
2023/12/28 07:40:32;;;;;;;4.83;1.70;;;;;;;7.56;100.00;100086.78;7372548;19;20439;-41
2023/12/28 07:43:04;;;;;;;4.00;1.30;;;;;;;7.61;100.00;100100.69;7393920;19;20411;-41
2023/12/28 07:45:35;;;;;;;6.80;2.17;;;;;;;7.65;100.00;100082.03;7371013;19;20987;-42
2023/12/28 07:48:05;;;;;;;2.70;1.63;;;;;;;7.63;100.00;100083.66;7395769;19;20407;-40
2023/12/28 07:50:35;;;;;;;2.70;1.50;;;;;;;7.57;100.00;100078.25;7372359;19;20447;-41
2023/12/28 07:53:05;;;;;;;11.27;3.50;;;;;;;7.62;100.00;100086.16;7395762;19;20392;-42
2023/12/28 07:55:35;;;;;;;19.80;6.47;;;;;;;7.70;100.00;100090.81;7372070;19;20947;-41
2023/12/28 07:58:07;;;;;;;10.30;3.70;;;;;;;7.68;100.00;100084.75;7393296;19;20428;-41
2023/12/28 08:00:38;;;;;;;10.23;2.07;;;;;;;7.68;100.00;100082.19;7372619;19;20443;-42
2023/12/28 08:03:08;;;;;;;20.13;5.30;;;;;;;7.73;100.00;100086.63;7393688;19;20438;-42
2023/12/28 08:05:38;;;;;;;15.73;5.00;;;;;;;7.76;100.00;100079.06;7372049;19;20947;-44
2023/12/28 08:08:08;;;;;;;9.97;2.60;;;;;;;7.78;100.00;100078.31;7393311;19;20396;-42
2023/12/28 08:10:38;;;;;;;19.00;6.97;;;;;;;7.88;100.00;100079.56;7372137;19;20467;-42
2023/12/28 08:13:10;;;;;;;12.60;4.73;;;;;;;7.89;100.00;100081.31;7393359;19;20395;-41
2023/12/28 08:15:40;;;;;;;11.13;2.87;;;;;;;7.97;100.00;100068.81;7371145;19;20441;-41
2023/12/28 08:18:10;;;;;;;5.10;2.03;;;;;;;8.00;100.00;100078.34;7391098;19;20428;-42
2023/12/28 08:20:39;;;;;;;19.57;3.60;;;;;;;8.02;100.00;100066.41;7371862;19;21303;-42
2023/12/28 08:23:09;;;;;;;15.53;5.00;;;;;;;8.05;100.00;100058.84;7393759;19;20403;-42
2023/12/28 08:25:47;;;;;;;15.63;5.27;;;;;;;8.05;100.00;100085.41;7368691;19;20407;-42
2023/12/28 08:28:19;;;;;;;8.27;2.63;;;;;;;8.18;100.00;100060.22;7391913;19;20944;-42
2023/12/28 08:30:49;;;;;;;8.77;3.07;;;;;;;8.19;100.00;100060.28;7371320;19;20468;-45
2023/12/28 08:33:19;;;;;;;9.73;3.70;;;;;;;8.16;100.00;100049.00;7391706;19;20407;-44
2023/12/28 08:35:49;;;;;;;14.63;5.87;;;;;;;8.28;100.00;100043.47;7371709;19;20436;-42
2023/12/28 08:38:19;;;;;;;2.70;1.53;;;;;;;8.28;100.00;100049.50;7391484;19;20399;-42
2023/12/28 08:40:48;;;;;;;9.83;2.43;;;;;;;8.27;100.00;100052.88;7371176;19;20439;-42
2023/12/28 08:43:21;;;;;;;15.30;6.43;;;;;;;8.31;100.00;100059.03;7391507;19;20432;-42
2023/12/28 08:45:50;;;;;;;11.97;4.30;;;;;;;8.29;100.00;100046.09;7370133;19;20405;-41
2023/12/28 08:48:20;;;;;;;15.10;3.47;;;;;;;8.31;100.00;100064.16;7392675;19;20406;-41
2023/12/28 08:50:51;;;;;;;6.00;1.40;;;;;;;8.39;100.00;100047.34;7355356;19;20416;-41
2023/12/28 08:53:21;;;;;;;4.13;1.60;;;;;;;8.47;100.00;100065.63;7366843;19;20448;-44
2023/12/28 08:55:51;;;;;;;3.63;1.50;;;;;;;8.42;100.00;100052.63;7344578;19;20488;-42
2023/12/28 08:58:23;;;;;;;8.47;1.37;;;;;;;8.44;100.00;100068.06;7364465;19;20447;-41
2023/12/28 09:00:53;;;;;;;3.40;1.87;;;;;;;8.44;100.00;100066.41;7343539;19;20422;-42
2023/12/28 09:03:23;;;;;;;4.90;1.23;;;;;;;8.44;100.00;100071.53;7365551;19;20407;-43
2023/12/28 09:05:53;;;;;;;4.00;1.10;;;;;;;8.45;100.00;100059.53;7341709;19;20537;-42
2023/12/28 09:08:23;;;;;;;4.87;1.13;;;;;;;8.50;100.00;100082.06;7361549;19;20411;-41
2023/12/28 09:10:53;;;;;;;6.70;3.30;;;;;;;8.60;100.00;100051.59;7358450;19;20434;-41
2023/12/28 09:13:25;;;;;;;7.10;1.63;;;;;;;8.53;100.00;100058.19;7387536;19;20948;-41
2023/12/28 09:15:55;;;;;;;5.07;1.83;;;;;;;8.58;100.00;100066.09;7370286;19;20476;-42
2023/12/28 09:18:25;;;;;;;3.00;1.30;;;;;;;8.62;100.00;100070.53;7389758;19;20428;-41
2023/12/28 09:20:55;;;;;;;7.23;1.57;;;;;;;8.63;100.00;100067.16;7369613;19;20399;-41
2023/12/28 09:23:24;;;;;;;2.60;1.17;;;;;;;8.66;100.00;100066.38;7391567;19;20415;-42
2023/12/28 09:25:54;;;;;;;4.27;1.30;;;;;;;8.62;100.00;100075.69;7369508;19;20391;-42
2023/12/28 09:28:26;;;;;;;5.27;1.30;;;;;;;8.73;100.00;100076.09;7391200;19;20399;-40
2023/12/28 09:30:56;;;;;;;7.63;1.50;;;;;;;8.72;100.00;100072.63;7376184;19;20394;-41
2023/12/28 09:33:26;;;;;;;8.80;2.07;;;;;;;8.75;100.00;100064.16;7397291;19;20403;-42
2023/12/28 09:35:56;;;;;;;5.00;1.50;;;;;;;8.73;100.00;100069.22;7377121;19;20775;-42
2023/12/28 09:38:26;;;;;;;7.57;1.10;;;;;;;8.75;100.00;100082.16;7396263;19;20431;-42
2023/12/28 09:40:57;;;;;;;4.23;1.30;;;;;;;8.80;100.00;100074.63;7376398;19;20427;-41
2023/12/28 09:43:36;;;;;;;8.07;1.30;;;;;;;8.74;100.00;100086.44;7396841;19;20411;-44
2023/12/28 09:46:11;;;;;;;5.53;2.10;;;;;;;8.83;100.00;100077.31;7374943;19;20415;-42
2023/12/28 09:48:41;;;;;;;5.97;1.40;;;;;;;8.86;100.00;100064.56;7400054;19;20419;-40
2023/12/28 09:51:13;;;;;;;7.67;1.90;;;;;;;8.89;100.00;100068.16;7374009;19;20510;-41
2023/12/28 09:53:45;;;;;;;3.63;1.50;;;;;;;8.89;100.00;100068.16;7397048;19;20935;-41
2023/12/28 09:56:16;;;;;;;6.83;1.13;;;;;;;8.90;100.00;100062.19;7374885;19;20419;-41
2023/12/28 09:58:50;;;;;;;3.20;1.10;;;;;;;8.94;100.00;100104.34;7396384;19;20419;-41
2023/12/28 10:01:21;;;;;;;5.63;0.90;;;;;;;8.96;100.00;100081.25;7375570;19;20450;-42
2023/12/28 10:03:51;;;;;;;6.60;1.60;;;;;;;8.95;100.00;100079.47;7396668;19;20411;-40
2023/12/28 10:06:21;;;;;;;6.27;1.87;;;;;;;8.96;100.00;100060.66;7374492;19;20419;-42
2023/12/28 10:08:52;;;;;;;2.47;1.30;;;;;;;8.96;100.00;100066.66;7395783;19;20415;-41
2023/12/28 10:11:22;;;;;;;10.17;1.33;;;;;;;8.98;100.00;100080.44;7374169;19;20444;-41
2023/12/28 10:13:57;;;;;;;4.73;1.93;;;;;;;9.01;100.00;100085.72;7399506;19;20395;-41
2023/12/28 10:16:26;;;;;;;3.60;0.83;;;;;;;9.01;100.00;100080.59;7374648;19;20439;-41
2023/12/28 10:18:58;;;;;;;8.50;2.40;;;;;;;9.08;100.00;100080.81;7396008;19;20400;-42
2023/12/28 10:21:28;;;;;;;10.37;1.30;;;;;;;9.05;100.00;100076.44;7374768;19;20426;-41
2023/12/28 10:23:58;;;;;;;11.03;1.83;;;;;;;9.08;100.00;100093.69;7396191;19;20406;-41
2023/12/28 10:26:28;;;;;;;12.20;2.03;;;;;;;9.10;100.00;100074.91;7375273;19;20419;-41
2023/12/28 10:29:03;;;;;;;9.53;1.83;;;;;;;9.11;100.00;100073.19;7396012;19;20411;-41
2023/12/28 10:31:33;;;;;;;4.60;1.33;;;;;;;9.11;100.00;100076.66;7374224;19;20514;-43
2023/12/28 10:34:04;;;;;;;6.13;1.13;;;;;;;9.08;100.00;100070.53;7396753;19;20479;-42
2023/12/28 10:36:36;;;;;;;8.77;1.43;;;;;;;9.10;100.00;100084.31;7374165;19;20481;-40
2023/12/28 10:39:08;;;;;;;6.50;1.47;;;;;;;9.07;100.00;100085.06;7394941;19;20411;-40
2023/12/28 10:41:39;;;;;;;17.87;1.93;;;;;;;9.12;100.00;100090.41;7373754;19;21046;-41
2023/12/28 10:44:12;;;;;;;6.57;1.00;;;;;;;9.09;100.00;100104.03;7396611;19;20407;-41
2023/12/28 10:46:43;;;;;;;9.13;1.93;;;;;;;9.14;100.00;100097.34;7372966;19;20446;-42
2023/12/28 10:49:15;;;;;;;13.50;2.00;;;;;;;9.16;100.00;100110.28;7394768;19;20399;-43
2023/12/28 10:51:46;;;;;;;14.97;2.30;;;;;;;9.21;100.00;100098.44;7373926;19;20452;-43
2023/12/28 10:54:24;;;;;;;5.77;1.40;;;;;;;9.25;100.00;100109.75;7394582;19;20403;-41
2023/12/28 10:56:59;;;;;;;8.63;1.33;;;;;;;9.28;100.00;100103.00;7375043;19;20901;-41
2023/12/28 10:59:38;;;;;;;8.10;2.77;;;;;;;9.31;100.00;100112.53;7395509;19;20428;-41
2023/12/28 11:02:09;;;;;;;8.67;1.47;;;;;;;9.36;100.00;100094.69;7374168;19;20430;-41
2023/12/28 11:04:43;;;;;;;6.87;1.43;;;;;;;9.37;100.00;100101.56;7395280;19;20407;-42
2023/12/28 11:07:15;;;;;;;8.83;1.00;;;;;;;9.35;100.00;100103.22;7373502;19;20431;-44
2023/12/28 11:09:46;;;;;;;9.37;2.07;;;;;;;9.36;100.00;100087.84;7395443;19;20415;-46
2023/12/28 11:12:18;;;;;;;3.80;1.67;;;;;;;9.39;100.00;100095.66;7372941;19;20447;-39
2023/12/28 11:14:52;;;;;;;5.20;1.27;;;;;;;9.40;100.00;100099.13;7396413;19;20395;-41
2023/12/28 11:17:24;;;;;;;5.90;1.50;;;;;;;9.42;100.00;100082.91;7373613;19;20434;-39
2023/12/28 11:19:55;;;;;;;8.60;1.87;;;;;;;9.43;100.00;100100.09;7398077;19;20385;-39
2023/12/28 11:22:25;;;;;;;10.43;2.80;;;;;;;9.39;100.00;100102.53;7373425;19;20426;-41
2023/12/28 11:24:55;;;;;;;6.07;1.20;;;;;;;9.40;100.00;100100.00;7395731;19;20403;-41
2023/12/28 11:27:26;;;;;;;4.93;1.03;;;;;;;9.41;100.00;100103.44;7372702;19;20431;-39
2023/12/28 11:29:59;;;;;;;6.90;2.33;;;;;;;9.38;100.00;100106.78;7395794;19;20483;-41
2023/12/28 11:32:28;;;;;;;5.07;1.97;;;;;;;9.37;100.00;100117.91;7373655;19;20501;-40
2023/12/28 11:35:01;;;;;;;10.13;2.40;;;;;;;9.36;100.00;100104.97;7395339;19;20432;-41
2023/12/28 11:37:32;;;;;;;10.83;1.70;;;;;;;9.36;100.00;100110.13;7372375;19;20432;-39
2023/12/28 11:40:13;;;;;;;5.50;2.03;;;;;;;9.35;100.00;100098.97;7395498;19;20424;-41
2023/12/28 11:42:51;;;;;;;3.90;1.40;;;;;;;9.42;100.00;100112.91;7373496;19;20463;-41